createdAt,value
2023-12-07T00:02:16.474Z,34.33
2023-12-07T00:05:20.084Z,33.80
2023-12-07T00:08:22.427Z,29.87
2023-12-07T00:11:25.889Z,28.10
2023-12-07T00:14:30.714Z,28.93
2023-12-07T00:17:32.831Z,27.47
2023-12-07T00:20:35.100Z,26.83
2023-12-07T00:23:38.945Z,27.57
2023-12-07T00:26:41.203Z,26.47
2023-12-07T00:29:43.936Z,26.87
2023-12-07T00:32:47.474Z,27.07
2023-12-07T00:35:50.546Z,28.30
2023-12-07T00:38:52.761Z,25.93
2023-12-07T00:41:55.205Z,25.93
2023-12-07T00:44:57.497Z,25.53
2023-12-07T00:47:59.737Z,24.53
2023-12-07T00:51:01.812Z,24.43
2023-12-07T00:54:04.665Z,24.93
2023-12-07T00:57:08.184Z,24.80
2023-12-07T01:00:12.062Z,24.83
2023-12-07T01:03:14.576Z,25.10
2023-12-07T01:06:18.279Z,26.67
2023-12-07T01:09:20.698Z,25.27
2023-12-07T01:12:24.170Z,26.17
2023-12-07T01:15:26.771Z,26.90
2023-12-07T01:18:31.133Z,26.47
2023-12-07T01:21:33.337Z,26.53
2023-12-07T01:24:35.672Z,26.13
2023-12-07T01:27:38.182Z,26.97
2023-12-07T01:30:41.709Z,27.10
2023-12-07T01:33:44.624Z,27.67
2023-12-07T01:36:47.416Z,28.10
2023-12-07T01:39:49.535Z,29.03
2023-12-07T01:42:53.382Z,29.60
2023-12-07T01:45:58.007Z,28.07
2023-12-07T01:49:01.020Z,28.30
2023-12-07T01:52:04.301Z,30.97
2023-12-07T01:55:08.584Z,30.30
2023-12-07T01:58:11.932Z,30.20
2023-12-07T02:01:14.310Z,29.07
2023-12-07T02:04:17.006Z,30.33
2023-12-07T02:07:20.968Z,32.50
2023-12-07T02:10:25.282Z,30.53
2023-12-07T02:13:27.915Z,30.27
2023-12-07T02:16:35.326Z,30.47
2023-12-07T02:19:55.900Z,28.83
2023-12-07T02:23:02.331Z,28.40
2023-12-07T02:26:43.079Z,30.23
2023-12-07T02:29:51.362Z,28.27
2023-12-07T02:32:53.705Z,30.70
2023-12-07T02:35:57.027Z,29.57
2023-12-07T02:39:00.267Z,29.67
2023-12-07T02:42:02.781Z,29.80
2023-12-07T02:45:05.887Z,29.93
2023-12-07T02:48:08.504Z,30.40
2023-12-07T02:51:10.925Z,29.37
2023-12-07T02:54:13.169Z,30.10
2023-12-07T02:57:16.429Z,28.67
2023-12-07T03:00:18.972Z,29.63
2023-12-07T03:03:21.487Z,29.63
2023-12-07T03:06:25.891Z,27.83
2023-12-07T03:09:28.046Z,28.07
2023-12-07T03:12:30.387Z,28.47
2023-12-07T03:15:32.577Z,28.37
2023-12-07T03:18:34.991Z,28.93
2023-12-07T03:21:40.076Z,28.63
2023-12-07T03:24:46.690Z,29.57
2023-12-07T03:27:50.426Z,29.23
2023-12-07T03:30:52.712Z,29.10
2023-12-07T03:33:55.143Z,30.27
2023-12-07T03:36:57.618Z,30.17
2023-12-07T03:40:00.113Z,30.07
2023-12-07T03:43:04.879Z,29.87
2023-12-07T03:46:08.480Z,30.07
2023-12-07T03:49:11.058Z,30.47
2023-12-07T03:52:15.780Z,31.07
2023-12-07T03:55:19.216Z,30.77
2023-12-07T03:58:21.824Z,31.70
2023-12-07T04:01:25.279Z,31.73
2023-12-07T04:04:27.501Z,33.23
2023-12-07T04:07:31.070Z,30.13
2023-12-07T04:10:33.489Z,30.93
2023-12-07T04:13:36.838Z,29.97
2023-12-07T04:16:41.294Z,30.53
2023-12-07T04:19:43.955Z,31.67
2023-12-07T04:22:47.155Z,33.33
2023-12-07T04:25:50.005Z,32.40
2023-12-07T04:28:52.218Z,35.40
2023-12-07T04:31:54.508Z,31.30
2023-12-07T04:34:56.805Z,32.07
2023-12-07T04:37:59.129Z,32.17
2023-12-07T04:41:01.330Z,33.17
2023-12-07T04:44:04.648Z,29.93
2023-12-07T04:47:06.920Z,28.97
2023-12-07T04:50:11.350Z,29.77
2023-12-07T04:53:13.531Z,29.40
2023-12-07T04:56:15.674Z,29.13
2023-12-07T04:59:19.000Z,30.53
2023-12-07T05:02:22.735Z,34.70
2023-12-07T05:05:26.030Z,34.97
2023-12-07T05:08:28.434Z,30.33
2023-12-07T05:11:31.158Z,30.93
2023-12-07T05:14:33.799Z,30.43
2023-12-07T05:17:36.420Z,30.50
2023-12-07T05:20:40.496Z,34.50
2023-12-07T05:23:42.843Z,30.43
2023-12-07T05:26:49.160Z,32.47
2023-12-07T05:29:51.500Z,33.00
2023-12-07T05:32:55.921Z,24.60
2023-12-07T05:35:58.673Z,27.37
2023-12-07T05:39:00.760Z,29.60
2023-12-07T05:42:05.686Z,30.33
2023-12-07T05:45:08.306Z,28.83
2023-12-07T05:48:12.729Z,33.00
2023-12-07T05:51:22.486Z,29.67
2023-12-07T05:54:26.276Z,29.97
2023-12-07T05:57:32.340Z,23.13
2023-12-07T06:00:34.740Z,20.27
2023-12-07T06:03:37.030Z,19.80
2023-12-07T06:06:40.198Z,19.47
2023-12-07T06:09:42.950Z,15.83
2023-12-07T06:12:45.399Z,17.33
2023-12-07T06:15:47.608Z,19.67
2023-12-07T06:18:51.040Z,19.60
2023-12-07T06:21:55.311Z,17.47
2023-12-07T06:24:57.514Z,14.23
2023-12-07T06:27:59.740Z,14.90
2023-12-07T06:31:06.283Z,17.47
2023-12-07T06:34:08.569Z,15.90
2023-12-07T06:37:12.203Z,14.23
2023-12-07T06:40:16.770Z,14.10
2023-12-07T06:43:19.574Z,13.37
2023-12-07T06:46:23.225Z,12.07
2023-12-07T06:49:38.391Z,17.17
2023-12-07T06:52:46.684Z,16.07
2023-12-07T06:55:48.957Z,13.53
2023-12-07T06:58:51.247Z,13.60
2023-12-07T07:01:57.637Z,12.60
2023-12-07T07:05:01.009Z,13.90
2023-12-07T07:08:03.714Z,12.00
2023-12-07T07:11:12.749Z,12.50
2023-12-07T07:14:16.978Z,21.87
2023-12-07T07:17:19.113Z,45.93
2023-12-07T07:20:22.217Z,21.97
2023-12-07T07:23:24.931Z,25.53
2023-12-07T07:26:27.500Z,16.30
2023-12-07T07:29:33.836Z,17.67
2023-12-07T07:32:36.194Z,10.83
2023-12-07T07:35:38.378Z,22.07
2023-12-07T07:38:40.892Z,14.40
2023-12-07T07:41:42.995Z,12.70
2023-12-07T07:44:53.303Z,12.13
2023-12-07T07:48:02.452Z,14.53
2023-12-07T07:51:05.105Z,13.37
2023-12-07T07:54:32.289Z,12.87
2023-12-07T07:57:34.925Z,15.73
2023-12-07T08:00:37.702Z,15.80
2023-12-07T08:03:39.859Z,19.63
2023-12-07T08:06:43.137Z,20.13
2023-12-07T08:09:46.419Z,17.37
2023-12-07T08:12:50.722Z,20.67
2023-12-07T08:15:56.664Z,15.13
2023-12-07T08:19:01.258Z,28.77
2023-12-07T08:22:03.903Z,28.73
2023-12-07T08:25:11.386Z,25.33
2023-12-07T08:28:40.386Z,16.03
2023-12-07T08:31:43.883Z,19.50
2023-12-07T08:34:47.734Z,20.47
2023-12-07T08:37:49.941Z,19.40
2023-12-07T08:40:53.530Z,17.50
2023-12-07T08:43:55.916Z,16.27
2023-12-07T08:46:58.239Z,18.20
2023-12-07T08:50:00.542Z,17.73
2023-12-07T08:53:05.370Z,19.93
2023-12-07T08:56:14.314Z,17.23
2023-12-07T08:59:16.457Z,16.03
2023-12-07T09:02:30.640Z,16.87
2023-12-07T09:05:41.564Z,21.27
2023-12-07T09:08:44.329Z,15.53
2023-12-07T09:11:46.664Z,16.40
2023-12-07T09:14:48.949Z,15.17
2023-12-07T09:17:52.236Z,13.93
2023-12-07T09:20:56.557Z,14.57
2023-12-07T09:23:58.765Z,16.73
2023-12-07T09:27:01.844Z,16.07
2023-12-07T09:30:12.758Z,21.87
2023-12-07T09:33:15.410Z,19.67
2023-12-07T09:36:23.003Z,19.60
2023-12-07T09:39:25.826Z,24.40
2023-12-07T09:42:34.542Z,20.80
2023-12-07T09:45:39.248Z,22.27
2023-12-07T09:48:44.041Z,22.03
2023-12-07T09:51:47.805Z,23.17
2023-12-07T09:54:53.186Z,17.90
2023-12-07T09:57:58.458Z,16.43
2023-12-07T10:01:03.010Z,14.97
2023-12-07T10:04:19.631Z,29.93
2023-12-07T10:07:33.451Z,15.77
2023-12-07T10:10:35.881Z,13.53
2023-12-07T10:13:38.655Z,18.00
2023-12-07T10:16:53.959Z,17.80
2023-12-07T10:20:13.945Z,16.73
2023-12-07T10:23:18.790Z,17.90
2023-12-07T10:26:21.899Z,15.47
2023-12-07T10:29:30.941Z,16.37
2023-12-07T10:32:40.576Z,20.87
2023-12-07T10:35:44.739Z,13.23
2023-12-07T10:38:48.363Z,15.23
2023-12-07T10:41:51.056Z,13.97
2023-12-07T10:44:58.232Z,12.67
2023-12-07T10:48:03.950Z,12.13
2023-12-07T10:51:10.256Z,11.33
2023-12-07T10:54:16.815Z,15.17
2023-12-07T10:57:20.140Z,11.03
2023-12-07T11:00:36.924Z,9.47
2023-12-07T11:03:45.036Z,10.30
2023-12-07T11:06:50.768Z,9.53
2023-12-07T11:09:56.125Z,10.93
2023-12-07T11:13:20.759Z,11.33
2023-12-07T11:16:38.358Z,10.23
2023-12-07T11:19:41.636Z,21.73
2023-12-07T11:22:44.085Z,15.53
2023-12-07T11:25:47.134Z,17.67
2023-12-07T11:28:50.916Z,17.20
2023-12-07T11:31:53.486Z,16.47
2023-12-07T11:34:56.034Z,15.70
2023-12-07T11:38:20.600Z,15.03
2023-12-07T11:41:23.053Z,23.00
2023-12-07T11:44:46.059Z,20.30
2023-12-07T11:48:06.927Z,14.87
2023-12-07T11:51:10.389Z,17.13
2023-12-07T11:54:13.160Z,15.53
2023-12-07T11:57:17.082Z,15.00
2023-12-07T12:00:20.690Z,15.63
2023-12-07T12:03:22.947Z,14.30
2023-12-07T12:06:27.900Z,12.57
2023-12-07T12:09:32.996Z,15.17
2023-12-07T12:13:02.312Z,12.03
2023-12-07T12:16:06.845Z,15.43
2023-12-07T12:19:12.172Z,15.33
2023-12-07T12:22:17.642Z,15.30
2023-12-07T12:25:19.937Z,10.87
2023-12-07T12:28:23.303Z,14.30
2023-12-07T12:31:28.050Z,11.27
2023-12-07T12:34:33.898Z,11.63
2023-12-07T12:37:36.494Z,13.47
2023-12-07T12:40:40.359Z,13.37
2023-12-07T12:43:42.918Z,9.80
2023-12-07T12:46:45.466Z,9.00
2023-12-07T12:49:48.242Z,9.53
2023-12-07T12:52:52.735Z,12.73
2023-12-07T12:55:56.583Z,9.93
2023-12-07T12:59:03.597Z,8.37
2023-12-07T13:02:10.923Z,12.83
2023-12-07T13:05:14.671Z,11.77
2023-12-07T13:08:17.294Z,11.33
2023-12-07T13:11:21.755Z,12.97
2023-12-07T13:14:24.293Z,12.77
2023-12-07T13:17:29.002Z,13.67
2023-12-07T13:20:39.876Z,13.03
2023-12-07T13:23:49.053Z,12.53
2023-12-07T13:26:53.434Z,13.60
2023-12-07T13:29:55.667Z,15.17
2023-12-07T13:33:00.742Z,19.37
2023-12-07T13:36:09.856Z,18.20
2023-12-07T13:39:23.845Z,16.20
2023-12-07T13:42:35.635Z,16.40
2023-12-07T13:45:38.997Z,28.57
2023-12-07T13:48:46.250Z,14.17
2023-12-07T13:51:48.960Z,14.13
2023-12-07T13:54:54.306Z,13.97
2023-12-07T13:57:59.026Z,14.57
2023-12-07T14:01:02.692Z,13.43
2023-12-07T14:04:05.226Z,11.17
2023-12-07T14:07:13.675Z,14.03
2023-12-07T14:10:16.707Z,14.77
2023-12-07T14:13:19.435Z,12.53
2023-12-07T14:16:31.540Z,18.43
2023-12-07T14:19:44.998Z,14.17
2023-12-07T14:22:47.674Z,19.87
2023-12-07T14:25:52.746Z,18.90
2023-12-07T14:28:55.125Z,12.27
2023-12-07T14:31:58.496Z,16.10
2023-12-07T14:35:01.073Z,15.50
2023-12-07T14:38:03.590Z,21.80
2023-12-07T14:41:06.270Z,13.40
2023-12-07T14:44:09.136Z,12.50
2023-12-07T14:47:12.228Z,12.67
2023-12-07T14:50:19.038Z,18.27
2023-12-07T14:53:25.067Z,16.23
2023-12-07T14:56:27.327Z,13.90
2023-12-07T14:59:30.800Z,13.97
2023-12-07T15:02:33.443Z,10.23
2023-12-07T15:05:37.840Z,11.30
2023-12-07T15:08:39.932Z,20.67
2023-12-07T15:11:42.283Z,17.87
2023-12-07T15:14:48.721Z,13.33
2023-12-07T15:17:52.057Z,15.60
2023-12-07T15:20:55.976Z,16.33
2023-12-07T15:24:01.429Z,17.90
2023-12-07T15:27:04.823Z,15.63
2023-12-07T15:30:11.411Z,16.00
2023-12-07T15:33:15.334Z,14.60
2023-12-07T15:36:19.039Z,13.53
2023-12-07T15:39:21.154Z,12.03
2023-12-07T15:42:23.694Z,13.80
2023-12-07T15:45:26.253Z,12.80
2023-12-07T15:48:29.094Z,11.43
2023-12-07T15:51:31.814Z,11.63
2023-12-07T15:54:39.732Z,11.17
2023-12-07T15:57:44.658Z,10.57
2023-12-07T16:00:47.382Z,12.47
2023-12-07T16:03:50.285Z,15.43
2023-12-07T16:06:53.318Z,14.93
2023-12-07T16:09:57.916Z,15.43
2023-12-07T16:13:01.000Z,13.57
2023-12-07T16:16:04.732Z,12.87
2023-12-07T16:19:07.969Z,14.77
2023-12-07T16:22:11.896Z,15.50
2023-12-07T16:25:22.589Z,16.53
2023-12-07T16:28:26.683Z,15.97
2023-12-07T16:31:29.555Z,13.83
2023-12-07T16:34:32.959Z,14.10
2023-12-07T16:37:35.869Z,16.60
2023-12-07T16:40:38.355Z,15.60
2023-12-07T16:43:41.665Z,16.33
2023-12-07T16:46:46.074Z,17.53
2023-12-07T16:49:49.344Z,18.87
2023-12-07T16:52:57.990Z,16.93
2023-12-07T16:56:01.134Z,15.77
2023-12-07T16:59:04.585Z,26.47
2023-12-07T17:02:07.038Z,16.63
2023-12-07T17:05:09.512Z,12.47
2023-12-07T17:08:12.772Z,16.93
2023-12-07T17:11:22.078Z,15.00
2023-12-07T17:14:24.447Z,10.50
2023-12-07T17:17:27.357Z,18.93
2023-12-07T17:20:29.983Z,20.97
2023-12-07T17:23:32.255Z,14.43
2023-12-07T17:26:39.688Z,13.43
2023-12-07T17:29:48.204Z,14.93
2023-12-07T17:32:50.666Z,16.63
2023-12-07T17:35:55.489Z,17.07
2023-12-07T17:38:59.164Z,11.67
2023-12-07T17:42:03.348Z,11.30
2023-12-07T17:45:08.032Z,14.77
2023-12-07T17:48:13.258Z,15.27
2023-12-07T17:51:22.059Z,12.67
2023-12-07T17:54:25.088Z,12.93
2023-12-07T17:57:27.825Z,16.57
2023-12-07T18:00:30.451Z,21.60
2023-12-07T18:03:39.873Z,12.90
2023-12-07T18:06:42.994Z,13.07
2023-12-07T18:09:45.563Z,16.20
2023-12-07T18:12:47.958Z,14.00
2023-12-07T18:15:50.458Z,13.93
2023-12-07T18:18:53.192Z,13.63
2023-12-07T18:21:57.615Z,15.00
2023-12-07T18:24:59.909Z,14.73
2023-12-07T18:28:02.569Z,17.00
2023-12-07T18:31:05.661Z,18.00
2023-12-07T18:34:09.297Z,31.87
2023-12-07T18:37:11.513Z,12.63
2023-12-07T18:40:13.859Z,13.23
2023-12-07T18:43:16.595Z,11.47
2023-12-07T18:46:18.869Z,14.63
2023-12-07T18:49:23.329Z,12.77
2023-12-07T18:52:27.347Z,11.70
2023-12-07T18:55:29.780Z,10.63
2023-12-07T18:58:32.019Z,12.13
2023-12-07T19:01:34.666Z,9.50
2023-12-07T19:04:37.170Z,10.93
2023-12-07T19:07:40.393Z,17.00
2023-12-07T19:10:45.998Z,10.67
2023-12-07T19:13:48.549Z,9.27
2023-12-07T19:16:51.840Z,10.47
2023-12-07T19:19:54.083Z,11.50
2023-12-07T19:22:57.125Z,10.20
2023-12-07T19:25:59.652Z,7.83
2023-12-07T19:29:01.841Z,6.90
2023-12-07T19:32:05.378Z,7.20
2023-12-07T19:35:08.064Z,10.77
2023-12-07T19:38:11.778Z,9.77
2023-12-07T19:41:14.065Z,11.30
2023-12-07T19:44:17.441Z,11.13
2023-12-07T19:47:19.937Z,10.90
2023-12-07T19:50:22.503Z,14.27
2023-12-07T19:53:31.887Z,9.83
2023-12-07T19:56:35.056Z,8.97
2023-12-07T19:59:37.358Z,9.73
2023-12-07T20:02:40.818Z,10.33
2023-12-07T20:05:42.972Z,11.67
2023-12-07T20:08:45.450Z,12.63
2023-12-07T20:11:54.242Z,14.47
2023-12-07T20:14:56.635Z,15.73
2023-12-07T20:17:59.347Z,11.53
2023-12-07T20:21:02.073Z,13.00
2023-12-07T20:24:04.519Z,8.97
2023-12-07T20:27:06.716Z,8.87
2023-12-07T20:30:10.500Z,11.03
2023-12-07T20:33:12.818Z,10.37
2023-12-07T20:36:19.527Z,14.57
2023-12-07T20:39:21.868Z,17.07
2023-12-07T20:42:23.991Z,11.63
2023-12-07T20:45:26.510Z,13.83
2023-12-07T20:48:30.349Z,13.43
2023-12-07T20:51:32.993Z,13.70
2023-12-07T20:54:35.255Z,12.30
2023-12-07T20:57:38.695Z,11.87
2023-12-07T21:00:42.318Z,15.63
2023-12-07T21:03:45.780Z,18.53
2023-12-07T21:06:49.399Z,11.70
2023-12-07T21:09:51.710Z,11.80
2023-12-07T21:12:58.415Z,9.87
2023-12-07T21:16:01.049Z,10.80
2023-12-07T21:19:05.967Z,14.57
2023-12-07T21:22:08.534Z,8.50
2023-12-07T21:25:10.873Z,12.17
2023-12-07T21:28:14.506Z,9.27
2023-12-07T21:31:22.775Z,13.50
2023-12-07T21:34:25.362Z,13.40
2023-12-07T21:37:27.864Z,18.00
2023-12-07T21:40:31.387Z,10.57
2023-12-07T21:43:33.588Z,8.67
2023-12-07T21:46:35.798Z,11.47
2023-12-07T21:49:38.311Z,9.83
2023-12-07T21:52:42.122Z,13.17
2023-12-07T21:55:44.377Z,10.40
2023-12-07T21:58:46.584Z,13.03
2023-12-07T22:01:48.839Z,11.20
2023-12-07T22:04:51.658Z,10.07
2023-12-07T22:07:54.462Z,10.73
2023-12-07T22:10:56.667Z,10.90
2023-12-07T22:13:59.015Z,10.67
2023-12-07T22:17:02.361Z,11.53
2023-12-07T22:20:05.266Z,10.60
2023-12-07T22:23:15.519Z,10.57
2023-12-07T22:26:17.847Z,9.03
2023-12-07T22:29:23.722Z,7.63
2023-12-07T22:32:25.928Z,7.40
2023-12-07T22:35:29.217Z,7.97
2023-12-07T22:38:34.149Z,9.40
2023-12-07T22:41:38.520Z,16.90
2023-12-07T22:44:41.706Z,7.03
2023-12-07T22:47:44.147Z,8.00
2023-12-07T22:50:50.484Z,11.33
2023-12-07T22:54:04.007Z,10.43
2023-12-07T22:57:06.216Z,6.83
2023-12-07T23:00:21.188Z,6.70
2023-12-07T23:03:49.533Z,8.27
2023-12-07T23:06:52.903Z,7.53
2023-12-07T23:09:55.083Z,5.63
2023-12-07T23:12:58.452Z,6.40
2023-12-07T23:16:00.805Z,6.87
2023-12-07T23:19:05.623Z,8.03
2023-12-07T23:22:10.430Z,8.27
2023-12-07T23:25:12.686Z,8.10
2023-12-07T23:28:14.705Z,6.60
2023-12-07T23:31:18.379Z,7.87
2023-12-07T23:34:22.370Z,9.67
2023-12-07T23:37:26.060Z,11.50
2023-12-07T23:40:28.662Z,9.00
2023-12-07T23:43:31.999Z,7.93
2023-12-07T23:46:34.233Z,7.37
2023-12-07T23:49:37.461Z,7.87
2023-12-07T23:52:39.842Z,8.43
2023-12-07T23:55:41.973Z,7.77
2023-12-07T23:58:46.561Z,9.30
